Time;durP1;ratioP1;P1;durP2;ratioP2;P2;SDS_P1;SDS_P2;PMS_P1;PMS_P2;Temp;Humidity;BMP_temperature;BMP_pressure;BME280_temperature;BME280_humidity;BME280_pressure;Samples;Min_cycle;Max_cycle;Signal;HPM_P1;HPM_P2
2022/03/30 00:00:29;;;;;;;34.37;21.23;;;;;;;9.11;60.85;100673.81;5273457;28;20475;-75
2022/03/30 00:03:00;;;;;;;34.50;18.97;;;;;;;8.97;61.50;100666.75;5273071;28;20123;-76
2022/03/30 00:05:31;;;;;;;40.67;19.63;;;;;;;8.95;61.39;100670.25;5275931;28;20058;-77
2022/03/30 00:08:03;;;;;;;31.20;18.40;;;;;;;8.91;61.52;100666.16;5273104;28;20036;-76
2022/03/30 00:10:34;;;;;;;36.13;19.43;;;;;;;8.87;61.82;100667.25;5272685;28;20052;-76
2022/03/30 00:13:08;;;;;;;37.70;20.13;;;;;;;8.94;61.76;100672.97;5279372;28;20090;-76
2022/03/30 00:15:39;;;;;;;29.30;19.20;;;;;;;8.85;61.93;100670.88;5275247;28;20033;-76
2022/03/30 00:18:10;;;;;;;33.03;19.83;;;;;;;8.94;61.79;100665.13;5291184;28;20032;-74
2022/03/30 00:20:42;;;;;;;35.33;20.23;;;;;;;8.78;62.11;100660.75;5272189;28;20849;-74
2022/03/30 00:23:13;;;;;;;35.93;19.87;;;;;;;8.87;61.87;100663.78;5272265;28;20064;-75
2022/03/30 00:25:45;;;;;;;33.13;19.40;;;;;;;8.81;62.44;100670.19;5273151;28;20074;-75
2022/03/30 00:28:16;;;;;;;33.83;18.73;;;;;;;8.70;62.67;100663.81;5292280;28;20120;-75
2022/03/30 00:30:47;;;;;;;35.80;19.40;;;;;;;8.87;62.20;100664.63;5294431;28;20432;-74
2022/03/30 00:33:18;;;;;;;33.30;19.37;;;;;;;8.61;62.77;100648.63;5276165;28;20056;-75
2022/03/30 00:35:50;;;;;;;38.00;20.30;;;;;;;8.90;62.44;100653.19;5271085;28;20542;-75
2022/03/30 00:38:22;;;;;;;39.87;21.60;;;;;;;8.74;63.17;100656.66;5287595;28;20039;-75
2022/03/30 00:40:53;;;;;;;42.73;21.87;;;;;;;8.68;63.25;100657.81;5282566;28;20056;-75
2022/03/30 00:43:24;;;;;;;38.97;20.90;;;;;;;8.68;63.26;100644.75;5275632;28;20494;-75
2022/03/30 00:45:56;;;;;;;34.80;19.70;;;;;;;8.53;63.67;100624.69;5285055;28;20024;-74
2022/03/30 00:48:27;;;;;;;34.10;20.60;;;;;;;8.63;63.46;100648.53;5273651;28;20028;-75
2022/03/30 00:50:58;;;;;;;35.93;21.00;;;;;;;8.39;64.19;100644.56;5282068;28;20043;-76
2022/03/30 00:53:30;;;;;;;31.80;19.67;;;;;;;8.37;64.56;100645.56;5293637;28;20023;-77
2022/03/30 00:56:01;;;;;;;36.03;20.70;;;;;;;8.50;64.34;100650.97;5290466;28;20032;-74
2022/03/30 00:58:33;;;;;;;35.27;20.97;;;;;;;8.43;64.12;100647.84;5280164;28;20028;-74
2022/03/30 01:01:05;;;;;;;34.40;21.27;;;;;;;8.48;64.19;100658.88;5277630;28;20058;-74
2022/03/30 01:03:36;;;;;;;36.47;20.23;;;;;;;8.51;64.06;100657.88;5273077;28;20507;-74
2022/03/30 01:06:08;;;;;;;39.33;22.47;;;;;;;8.35;64.39;100648.25;5286411;28;20062;-73
2022/03/30 01:08:39;;;;;;;33.97;20.73;;;;;;;8.39;64.29;100644.56;5274328;28;20035;-74
2022/03/30 01:11:10;;;;;;;32.27;20.47;;;;;;;8.31;64.53;100636.28;5276057;28;20028;-74
2022/03/30 01:13:42;;;;;;;28.43;19.63;;;;;;;8.28;64.46;100628.63;5291066;28;20030;-75
2022/03/30 01:16:14;;;;;;;35.77;20.20;;;;;;;8.27;64.37;100633.03;5273221;28;20021;-74
2022/03/30 01:18:45;;;;;;;37.63;19.97;;;;;;;8.17;64.64;100618.78;5272347;28;20056;-77
2022/03/30 01:21:17;;;;;;;32.93;19.97;;;;;;;8.02;65.00;100623.88;5271250;28;20037;-76
2022/03/30 01:23:48;;;;;;;31.07;19.27;;;;;;;7.96;64.81;100626.78;5272671;28;20012;-74
2022/03/30 01:26:19;;;;;;;32.47;20.47;;;;;;;7.85;65.96;100620.38;5275940;28;20035;-74
2022/03/30 01:28:51;;;;;;;38.43;20.67;;;;;;;7.96;65.69;100621.56;5297538;28;20028;-75
2022/03/30 01:34:13;;;;;;;34.27;19.93;;;;;;;7.92;65.56;100625.28;5270539;28;20534;-75
2022/03/30 01:36:45;;;;;;;33.97;19.93;;;;;;;7.89;65.49;100615.84;5274437;28;20147;-75
2022/03/30 01:39:16;;;;;;;34.47;20.27;;;;;;;7.79;65.55;100612.03;5271499;28;20123;-76
2022/03/30 01:41:47;;;;;;;41.47;20.50;;;;;;;7.71;66.07;100605.47;5271161;28;20033;-75
2022/03/30 01:44:18;;;;;;;34.50;20.60;;;;;;;7.72;65.67;100604.53;5285237;28;20126;-77
2022/03/30 01:46:51;;;;;;;43.50;22.17;;;;;;;7.88;65.52;100619.38;5278595;28;20042;-75
2022/03/30 01:49:22;;;;;;;33.23;19.87;;;;;;;7.83;65.66;100610.97;5269467;28;20032;-75
2022/03/30 01:51:56;;;;;;;36.97;20.33;;;;;;;7.94;65.36;100615.63;5270516;28;20051;-76
2022/03/30 01:54:28;;;;;;;38.07;20.23;;;;;;;7.70;65.83;100614.19;5272035;28;20046;-76
2022/03/30 01:56:59;;;;;;;39.20;22.20;;;;;;;7.82;65.34;100609.28;5280635;28;20349;-75
2022/03/30 01:59:31;;;;;;;39.80;20.73;;;;;;;7.59;66.23;100614.75;5279485;28;20044;-74
2022/03/30 02:02:02;;;;;;;38.27;21.03;;;;;;;7.66;65.92;100609.22;5277858;28;20032;-75
2022/03/30 02:04:35;;;;;;;36.53;19.17;;;;;;;7.57;65.86;100600.13;5291535;28;20028;-75
2022/03/30 02:07:10;;;;;;;30.33;19.97;;;;;;;7.60;66.11;100605.16;5291760;28;20020;-75
2022/03/30 02:09:42;;;;;;;35.00;19.53;;;;;;;7.55;66.37;100595.00;5292398;28;20044;-76
2022/03/30 02:12:13;;;;;;;36.10;19.33;;;;;;;7.47;66.26;100584.94;5280247;28;20043;-75
2022/03/30 02:14:44;;;;;;;39.87;21.37;;;;;;;7.62;66.17;100590.28;5271418;28;20040;-76
2022/03/30 02:17:16;;;;;;;30.47;19.50;;;;;;;7.57;66.18;100585.34;5272630;28;20478;-76
2022/03/30 02:19:47;;;;;;;39.70;21.40;;;;;;;7.49;66.40;100587.47;5275490;28;20093;-76
2022/03/30 02:22:18;;;;;;;35.17;20.20;;;;;;;7.30;67.28;100587.56;5270611;28;20029;-75
2022/03/30 02:24:51;;;;;;;40.87;21.83;;;;;;;7.46;66.93;100591.09;5273734;28;20040;-78
2022/03/30 02:27:23;;;;;;;37.60;20.87;;;;;;;7.26;67.69;100587.72;5278389;28;20029;-77
2022/03/30 02:29:54;;;;;;;31.80;20.40;;;;;;;7.38;67.16;100585.44;5287039;28;20587;-77
2022/03/30 02:32:25;;;;;;;37.03;19.03;;;;;;;7.13;67.02;100561.44;5289969;28;20028;-76
2022/03/30 02:34:57;;;;;;;38.03;21.27;;;;;;;7.23;67.58;100567.03;5291003;28;20055;-76
2022/03/30 02:37:28;;;;;;;33.67;19.93;;;;;;;7.24;67.52;100568.72;5290178;28;20036;-77
2022/03/30 02:40:00;;;;;;;31.23;20.03;;;;;;;7.13;67.61;100556.25;5279827;28;20040;-77
2022/03/30 02:42:31;;;;;;;36.43;20.60;;;;;;;7.23;67.13;100546.19;5271277;28;20482;-77
2022/03/30 02:45:03;;;;;;;35.53;20.67;;;;;;;7.28;66.91;100550.34;5275299;28;20028;-76
2022/03/30 02:50:25;;;;;;;36.87;21.20;;;;;;;7.11;67.51;100544.19;5272381;28;20037;-76
2022/03/30 02:52:56;;;;;;;34.27;19.83;;;;;;;7.16;67.57;100544.81;5271366;28;20024;-76
2022/03/30 02:55:28;;;;;;;38.40;22.10;;;;;;;7.01;67.72;100536.88;5270100;28;20539;-77
2022/03/30 02:57:59;;;;;;;39.97;20.40;;;;;;;6.86;68.31;100543.66;5281193;28;20549;-76
2022/03/30 03:00:31;;;;;;;39.27;21.43;;;;;;;6.68;69.26;100528.94;5281163;28;20038;-77
2022/03/30 03:03:03;;;;;;;41.50;21.37;;;;;;;6.68;69.15;100539.34;5295020;28;20016;-76
2022/03/30 03:05:35;;;;;;;45.60;22.63;;;;;;;6.78;69.19;100551.00;5283145;28;20466;-76
2022/03/30 03:08:09;;;;;;;34.50;22.00;;;;;;;6.75;69.03;100541.59;5278125;28;20020;-76
2022/03/30 03:10:44;;;;;;;37.27;20.17;;;;;;;6.81;68.92;100550.84;5295553;28;20047;-76
2022/03/30 03:13:16;;;;;;;33.10;20.07;;;;;;;6.94;68.22;100540.69;5294371;28;20020;-76
2022/03/30 03:15:48;;;;;;;38.90;20.97;;;;;;;6.80;68.74;100548.31;5288522;28;20024;-76
2022/03/30 03:18:19;;;;;;;34.93;20.57;;;;;;;6.78;68.89;100536.25;5275803;28;20773;-76
2022/03/30 03:20:51;;;;;;;34.23;19.47;;;;;;;6.67;69.21;100545.50;5273198;28;20119;-76
2022/03/30 03:23:22;;;;;;;36.50;22.07;;;;;;;6.80;69.05;100537.91;5274136;28;20032;-74
2022/03/30 03:25:53;;;;;;;36.20;21.47;;;;;;;6.62;69.52;100536.13;5282702;28;20035;-74
2022/03/30 03:28:25;;;;;;;44.00;20.87;;;;;;;6.73;68.97;100530.41;5274244;28;20028;-74
2022/03/30 03:30:56;;;;;;;32.00;19.83;;;;;;;6.52;69.21;100509.72;5275740;28;20511;-74
2022/03/30 03:33:27;;;;;;;41.83;21.50;;;;;;;6.51;69.28;100510.63;5294068;28;20032;-75
2022/03/30 03:35:59;;;;;;;39.37;20.43;;;;;;;6.63;69.37;100522.19;5293364;28;20016;-73
2022/03/30 03:38:30;;;;;;;37.93;20.60;;;;;;;6.43;69.85;100515.34;5274817;28;20535;-74
2022/03/30 03:41:01;;;;;;;37.63;21.73;;;;;;;6.60;69.52;100516.28;5291327;28;20028;-74
2022/03/30 03:43:32;;;;;;;36.67;20.93;;;;;;;6.61;69.60;100520.59;5274680;28;20531;-74
2022/03/30 03:46:04;;;;;;;36.20;19.67;;;;;;;6.47;69.82;100510.84;5293652;28;20837;-74
2022/03/30 03:48:35;;;;;;;40.70;23.53;;;;;;;6.40;70.05;100515.50;5275775;28;20170;-74
2022/03/30 03:51:07;;;;;;;36.73;20.03;;;;;;;6.43;69.80;100511.91;5293110;28;20036;-74
2022/03/30 03:53:38;;;;;;;37.30;20.13;;;;;;;6.44;69.96;100509.22;5294532;28;20081;-74
2022/03/30 03:56:09;;;;;;;36.33;20.43;;;;;;;6.39;70.24;100513.81;5292170;28;20040;-74
2022/03/30 03:58:40;;;;;;;41.23;21.53;;;;;;;6.42;69.85;100513.69;5281941;28;20028;-75
2022/03/30 04:01:12;;;;;;;41.03;21.70;;;;;;;6.47;69.35;100522.09;5276547;28;20036;-75
2022/03/30 04:03:43;;;;;;;35.63;21.33;;;;;;;6.28;70.31;100512.56;5279364;28;20059;-75
2022/03/30 04:06:14;;;;;;;33.67;20.80;;;;;;;6.25;70.79;100504.91;5292060;28;20086;-75
2022/03/30 04:08:45;;;;;;;35.07;20.37;;;;;;;6.26;70.33;100508.34;5294404;28;20044;-75
2022/03/30 04:11:17;;;;;;;36.07;20.77;;;;;;;6.24;70.50;100495.44;5290261;28;20406;-75
2022/03/30 04:13:49;;;;;;;39.03;21.27;;;;;;;6.16;70.83;100505.34;5282359;28;20449;-75
2022/03/30 04:16:21;;;;;;;36.63;21.37;;;;;;;6.26;70.42;100508.34;5292746;28;20385;-75
2022/03/30 04:18:52;;;;;;;43.27;21.47;;;;;;;5.99;71.60;100501.72;5271976;28;20021;-75
2022/03/30 04:21:23;;;;;;;37.20;20.80;;;;;;;5.95;71.35;100495.00;5280900;28;20028;-75
2022/03/30 04:23:54;;;;;;;33.97;20.63;;;;;;;6.05;71.16;100488.50;5292117;28;20016;-75
2022/03/30 04:26:26;;;;;;;38.43;20.23;;;;;;;5.97;70.95;100482.75;5291452;28;20594;-75
2022/03/30 04:28:57;;;;;;;37.67;21.97;;;;;;;5.96;71.22;100493.22;5289428;28;20035;-76
2022/03/30 04:31:29;;;;;;;35.80;21.07;;;;;;;5.88;71.53;100497.03;5293732;28;20024;-75
2022/03/30 04:34:00;;;;;;;38.17;21.80;;;;;;;5.85;72.10;100496.34;5292791;28;20059;-75
2022/03/30 04:36:32;;;;;;;40.40;20.47;;;;;;;5.81;72.25;100493.84;5272628;28;20038;-75
2022/03/30 04:39:03;;;;;;;37.93;22.50;;;;;;;5.91;71.93;100494.31;5273911;28;20071;-75
2022/03/30 04:41:34;;;;;;;44.30;22.87;;;;;;;5.77;71.84;100481.94;5284423;28;20027;-75
2022/03/30 04:44:11;;;;;;;40.37;21.00;;;;;;;5.75;72.29;100499.34;5283656;28;20029;-76
2022/03/30 04:46:43;;;;;;;39.70;21.57;;;;;;;5.84;71.98;100505.03;5274754;28;20040;-76
2022/03/30 04:49:15;;;;;;;39.37;20.50;;;;;;;5.74;72.05;100502.84;5289417;28;20046;-75
2022/03/30 04:51:47;;;;;;;41.90;21.97;;;;;;;5.77;71.62;100507.94;5293432;28;20114;-75
2022/03/30 04:54:18;;;;;;;37.53;21.03;;;;;;;5.73;71.85;100506.38;5289163;28;20025;-75
2022/03/30 04:56:51;;;;;;;41.83;22.63;;;;;;;5.65;72.80;100495.47;5284856;28;20477;-75
2022/03/30 04:59:23;;;;;;;36.73;21.57;;;;;;;5.45;73.42;100507.59;5292755;28;20028;-75
2022/03/30 05:01:54;;;;;;;33.83;22.20;;;;;;;5.45;73.27;100497.19;5291187;28;20723;-75
2022/03/30 05:04:25;;;;;;;40.03;21.97;;;;;;;5.52;73.38;100509.00;5289039;28;20024;-75
2022/03/30 05:06:57;;;;;;;47.33;23.93;;;;;;;5.35;73.71;100501.09;5293328;28;20031;-76
2022/03/30 05:09:28;;;;;;;37.73;23.27;;;;;;;5.31;73.52;100488.25;5278055;28;20041;-76
2022/03/30 05:11:59;;;;;;;32.87;20.80;;;;;;;5.39;73.34;100497.47;5280803;28;20024;-76
2022/03/30 05:14:32;;;;;;;40.23;22.07;;;;;;;5.37;73.56;100504.50;5277909;28;20020;-76
2022/03/30 05:17:04;;;;;;;45.63;23.70;;;;;;;5.22;73.94;100486.06;5276662;28;20024;-76
2022/03/30 05:19:37;;;;;;;41.40;21.70;;;;;;;5.14;74.17;100482.94;5275598;28;20043;-76
2022/03/30 05:22:08;;;;;;;45.27;25.00;;;;;;;5.11;75.22;100493.47;5276341;28;20435;-76
2022/03/30 05:24:39;;;;;;;38.20;24.23;;;;;;;5.16;74.77;100492.38;5280379;28;20023;-76
2022/03/30 05:27:11;;;;;;;37.27;22.27;;;;;;;5.12;74.74;100479.56;5270524;28;20028;-76
2022/03/30 05:29:42;;;;;;;41.97;24.03;;;;;;;5.10;74.83;100484.81;5271315;28;20120;-76
2022/03/30 05:32:13;;;;;;;44.83;23.03;;;;;;;5.10;74.86;100486.59;5258965;28;20622;-74
2022/03/30 05:34:45;;;;;;;41.47;24.07;;;;;;;5.08;75.36;100486.63;5273475;28;20024;-74
2022/03/30 05:37:16;;;;;;;44.90;23.50;;;;;;;5.07;74.93;100483.22;5276248;28;20085;-75
2022/03/30 05:39:47;;;;;;;41.70;24.90;;;;;;;4.97;75.43;100484.53;5274049;28;20028;-75
2022/03/30 05:42:20;;;;;;;44.23;25.13;;;;;;;4.97;75.44;100480.16;5257089;28;20033;-74
2022/03/30 05:44:52;;;;;;;45.43;24.47;;;;;;;4.94;75.47;100480.28;5271883;28;20494;-74
2022/03/30 05:47:23;;;;;;;44.20;23.47;;;;;;;5.02;75.70;100479.13;5268646;28;20028;-74
2022/03/30 05:49:54;;;;;;;43.27;22.30;;;;;;;4.93;75.46;100473.44;5280450;28;20068;-74
2022/03/30 05:52:26;;;;;;;43.60;23.03;;;;;;;5.05;75.41;100484.19;5270526;28;20467;-74
2022/03/30 05:54:57;;;;;;;36.03;21.30;;;;;;;5.07;75.52;100478.03;5271483;28;20054;-74
2022/03/30 05:57:29;;;;;;;38.50;23.37;;;;;;;4.95;75.96;100478.53;5278940;28;20028;-74
2022/03/30 06:00:00;;;;;;;41.37;22.67;;;;;;;4.83;75.81;100464.34;5280856;28;20099;-74
2022/03/30 06:02:32;;;;;;;46.07;23.43;;;;;;;4.98;75.58;100473.22;5282545;28;20039;-75
2022/03/30 06:05:04;;;;;;;46.83;23.70;;;;;;;4.91;76.30;100476.97;5287906;28;20157;-74
2022/03/30 06:07:36;;;;;;;44.97;22.53;;;;;;;4.90;76.12;100477.91;5278597;28;20434;-75
2022/03/30 06:10:08;;;;;;;43.23;23.90;;;;;;;4.97;76.53;100500.09;5264007;28;20057;-74
2022/03/30 06:12:39;;;;;;;47.30;24.13;;;;;;;4.89;75.95;100473.59;5269052;28;20024;-80
2022/03/30 06:15:10;;;;;;;40.90;24.07;;;;;;;4.98;76.18;100488.78;5269162;28;20408;-79
2022/03/30 06:17:42;;;;;;;38.83;22.07;;;;;;;4.99;75.90;100490.50;5265858;28;20037;-73
2022/03/30 06:20:13;;;;;;;42.13;23.63;;;;;;;5.06;76.07;100499.69;5268617;28;20043;-74
2022/03/30 06:22:45;;;;;;;43.47;24.17;;;;;;;5.10;76.06;100499.59;5265049;28;20036;-74
2022/03/30 06:25:16;;;;;;;39.67;22.93;;;;;;;5.10;75.67;100492.63;5265360;28;20401;-75
2022/03/30 06:27:48;;;;;;;41.70;23.40;;;;;;;5.07;76.08;100501.41;5257507;28;20060;-74
2022/03/30 06:30:20;;;;;;;37.97;22.37;;;;;;;5.15;75.88;100500.22;5269209;28;20029;-68
2022/03/30 06:32:52;;;;;;;39.67;23.20;;;;;;;5.19;75.92;100506.97;5253067;28;20089;-70
2022/03/30 06:35:25;;;;;;;42.33;23.43;;;;;;;4.97;76.59;100502.69;5258854;28;20016;-69
2022/03/30 06:37:56;;;;;;;38.37;22.63;;;;;;;5.01;76.44;100498.22;5262705;28;20033;-69
2022/03/30 06:40:27;;;;;;;41.70;22.53;;;;;;;5.14;76.44;100498.53;5262906;28;20042;-70
2022/03/30 06:43:00;;;;;;;45.73;23.53;;;;;;;5.17;76.58;100503.56;5262736;28;20127;-68
2022/03/30 06:45:31;;;;;;;43.20;22.00;;;;;;;5.31;75.96;100498.66;5263927;28;20021;-69
2022/03/30 06:48:03;;;;;;;45.80;24.97;;;;;;;5.33;75.96;100498.56;5262869;28;20043;-68
2022/03/30 06:50:35;;;;;;;35.87;22.33;;;;;;;5.26;75.94;100497.16;5265657;28;20033;-64
2022/03/30 06:53:07;;;;;;;39.03;23.53;;;;;;;5.38;76.11;100501.81;5264588;28;20035;-68
2022/03/30 06:55:38;;;;;;;36.30;21.80;;;;;;;5.43;75.91;100493.81;5262337;28;20021;-69
2022/03/30 06:58:10;;;;;;;41.20;22.93;;;;;;;5.51;75.45;100496.94;5262819;28;20101;-69
2022/03/30 07:00:42;;;;;;;43.80;23.70;;;;;;;5.60;74.86;100494.84;5261923;28;20036;-69
2022/03/30 07:03:13;;;;;;;39.30;21.30;;;;;;;5.61;75.39;100493.91;5262055;28;20029;-68
2022/03/30 07:05:44;;;;;;;45.37;21.63;;;;;;;5.70;74.80;100475.31;5262187;28;20501;-70
2022/03/30 07:11:06;;;;;;;40.10;21.37;;;;;;;6.01;73.55;100486.91;5263477;28;20091;-68
2022/03/30 07:13:37;;;;;;;34.30;20.03;;;;;;;5.88;73.81;100488.41;5261049;28;20119;-72
2022/03/30 07:16:09;;;;;;;34.20;20.77;;;;;;;6.14;73.26;100500.19;5261137;28;20086;-67
2022/03/30 07:18:40;;;;;;;33.13;19.83;;;;;;;6.27;72.80;100508.28;5262328;28;20534;-67
2022/03/30 07:21:11;;;;;;;42.87;20.90;;;;;;;6.36;72.89;100496.59;5262532;28;20159;-70
2022/03/30 07:23:43;;;;;;;40.57;22.07;;;;;;;6.40;72.84;100500.75;5262311;28;21286;-68
2022/03/30 07:26:14;;;;;;;37.03;21.03;;;;;;;6.44;72.71;100500.59;5262688;28;20043;-67
2022/03/30 07:28:46;;;;;;;40.83;20.87;;;;;;;6.77;71.53;100495.50;5261979;28;20121;-69
2022/03/30 07:31:17;;;;;;;38.57;22.37;;;;;;;7.01;70.94;100483.94;5261487;28;20033;-72
2022/03/30 07:33:48;;;;;;;47.03;21.73;;;;;;;7.11;69.92;100492.13;5261556;28;20427;-72
2022/03/30 07:36:19;;;;;;;40.50;20.53;;;;;;;7.35;69.41;100504.78;5261223;28;20490;-73
2022/03/30 07:38:51;;;;;;;37.17;20.17;;;;;;;7.53;68.22;100505.63;5262426;28;20035;-76
2022/03/30 07:41:22;;;;;;;34.17;21.03;;;;;;;7.66;67.70;100500.59;5264445;28;20029;-75
2022/03/30 07:43:53;;;;;;;37.67;20.83;;;;;;;7.61;66.44;100481.75;5261969;28;20040;-68
2022/03/30 07:46:25;;;;;;;36.57;21.83;;;;;;;7.83;66.33;100491.03;5260179;28;20093;-69
2022/03/30 07:48:56;;;;;;;32.53;19.43;;;;;;;8.06;65.79;100491.53;5261130;28;20067;-69
2022/03/30 07:51:27;;;;;;;32.90;19.37;;;;;;;8.18;64.85;100490.88;5261636;28;20036;-69
2022/03/30 07:53:58;;;;;;;33.40;19.63;;;;;;;8.43;64.69;100484.25;5260660;28;20033;-70
2022/03/30 07:56:31;;;;;;;38.37;19.73;;;;;;;8.61;63.96;100493.75;5262403;28;20025;-69
2022/03/30 07:59:03;;;;;;;37.03;20.07;;;;;;;8.79;63.16;100495.34;5261639;28;20036;-69
2022/03/30 08:01:34;;;;;;;31.20;17.00;;;;;;;9.10;61.44;100486.59;5266537;28;20044;-69
2022/03/30 08:04:05;;;;;;;30.53;18.33;;;;;;;9.30;60.72;100488.03;5260884;28;20090;-69
2022/03/30 08:06:37;;;;;;;34.57;18.23;;;;;;;9.42;60.29;100494.31;5259695;28;20517;-69
2022/03/30 08:09:08;;;;;;;32.97;18.43;;;;;;;9.42;59.41;100495.16;5258514;28;20778;-69
2022/03/30 08:11:39;;;;;;;28.27;17.50;;;;;;;9.54;60.02;100495.31;5277593;28;20495;-74
2022/03/30 08:14:12;;;;;;;38.77;20.03;;;;;;;10.04;59.47;100506.19;5276786;28;20407;-71
2022/03/30 08:16:43;;;;;;;29.57;19.07;;;;;;;10.85;57.00;100502.84;5272768;28;20142;-68
2022/03/30 08:19:14;;;;;;;31.53;17.60;;;;;;;11.48;55.17;100503.91;5279384;28;20118;-69
2022/03/30 08:24:35;;;;;;;33.67;17.60;;;;;;;12.76;51.10;100504.53;5293579;28;20031;-69
2022/03/30 08:27:06;;;;;;;38.30;18.47;;;;;;;13.33;49.86;100502.00;5284212;28;20021;-69
2022/03/30 08:29:38;;;;;;;23.77;16.63;;;;;;;14.01;47.65;100516.13;5272672;28;20035;-69
2022/03/30 08:32:14;;;;;;;30.17;16.90;;;;;;;14.37;47.06;100510.63;5254600;28;20024;-69
2022/03/30 08:34:45;;;;;;;24.80;16.33;;;;;;;14.70;45.59;100506.16;5271564;28;20494;-69
2022/03/30 08:37:17;;;;;;;25.50;16.47;;;;;;;15.07;44.22;100512.84;5272567;28;20268;-69
2022/03/30 08:39:49;;;;;;;27.37;15.20;;;;;;;15.47;43.41;100498.03;5272184;28;20060;-69
2022/03/30 08:42:21;;;;;;;26.03;14.40;;;;;;;15.56;42.25;100496.41;5272360;28;20039;-69
2022/03/30 08:44:52;;;;;;;28.10;15.20;;;;;;;15.81;41.88;100493.41;5272379;28;20515;-69
2022/03/30 08:47:23;;;;;;;25.27;15.40;;;;;;;15.90;41.15;100494.41;5270896;28;20071;-69
2022/03/30 08:49:55;;;;;;;24.80;13.50;;;;;;;16.38;40.75;100494.63;5270832;28;20024;-69
2022/03/30 08:52:26;;;;;;;19.67;14.87;;;;;;;16.45;40.19;100491.31;5273484;28;20025;-69
2022/03/30 08:54:59;;;;;;;24.13;13.83;;;;;;;16.68;39.60;100488.38;5272794;28;20020;-71
2022/03/30 08:57:30;;;;;;;27.27;13.73;;;;;;;16.62;39.46;100496.00;5271403;28;20024;-69
2022/03/30 09:00:14;;;;;;;21.07;13.23;;;;;;;17.20;40.92;100496.91;5271890;28;20554;-70
2022/03/30 09:02:50;;;;;;;22.47;13.67;;;;;;;17.76;38.56;100493.47;5271292;28;20559;-69
2022/03/30 09:05:24;;;;;;;23.97;13.27;;;;;;;17.90;37.47;100495.63;5271829;28;20153;-69
2022/03/30 09:08:10;;;;;;;;;;;;;;;19.53;39.01;100510.63;5272452;28;20017;-69
2022/03/30 09:10:43;;;;;;;22.13;13.80;;;;;;;17.98;36.31;100476.31;5267782;28;20457;-70
2022/03/30 09:13:17;;;;;;;24.17;13.30;;;;;;;18.58;36.03;100502.38;5271047;28;20423;-70
2022/03/30 09:15:51;;;;;;;23.42;13.35;;;;;;;18.64;36.32;100491.16;5270908;28;20348;-69
2022/03/30 09:18:22;;;;;;;19.88;13.65;;;;;;;18.97;35.00;100493.22;5270012;28;20028;-69
2022/03/30 09:20:57;;;;;;;19.40;13.75;;;;;;;18.86;34.86;100483.69;5271763;28;20079;-69
2022/03/30 09:23:29;;;;;;;20.90;12.57;;;;;;;18.96;34.70;100487.06;5271025;28;20024;-70
2022/03/30 09:26:01;;;;;;;19.20;11.82;;;;;;;19.18;34.14;100486.72;5271099;28;20028;-69
2022/03/30 09:28:32;;;;;;;17.67;12.38;;;;;;;20.15;33.78;100474.94;5271098;28;20021;-69
2022/03/30 09:31:03;;;;;;;23.88;14.52;;;;;;;20.30;33.10;100468.97;5271204;28;20024;-70
2022/03/30 09:33:35;;;;;;;20.48;12.05;;;;;;;19.85;32.98;100476.34;5270216;28;20124;-70
2022/03/30 09:36:26;;;;;;;27.25;13.30;;;;;;;20.87;33.83;100464.59;5270957;28;20017;-69
2022/03/30 09:38:57;;;;;;;19.55;12.48;;;;;;;19.43;32.81;100465.59;5270575;28;20028;-70
2022/03/30 09:41:49;;;;;;;19.38;12.93;;;;;;;20.35;33.33;100463.97;5271687;28;20028;-70
2022/03/30 09:44:21;;;;;;;20.42;13.15;;;;;;;19.50;33.32;100457.81;5268205;28;20028;-70
2022/03/30 09:46:58;;;;;;;24.88;13.70;;;;;;;20.00;32.48;100448.13;5270108;28;20395;-69
2022/03/30 09:49:31;;;;;;;20.70;13.75;;;;;;;19.52;32.89;100435.44;5270536;28;20117;-78
2022/03/30 09:52:12;;;;;;;17.83;13.65;;;;;;;19.84;33.44;100448.97;5269328;28;20024;-73
2022/03/30 09:54:53;;;;;;;21.83;13.48;;;;;;;19.53;33.69;100446.88;5259670;28;20531;-73
2022/03/30 09:57:27;;;;;;;20.92;14.13;;;;;;;18.54;33.91;100456.78;5258971;28;20024;-74
2022/03/30 10:00:02;;;;;;;22.13;14.03;;;;;;;18.14;35.44;100446.53;5259587;28;20475;-73
2022/03/30 10:02:39;;;;;;;23.40;15.20;;;;;;;17.78;35.71;100446.47;5258712;28;20100;-71
2022/03/30 10:05:16;;;;;;;23.40;14.10;;;;;;;18.80;34.97;100442.69;5259820;28;20032;-70
2022/03/30 10:07:49;;;;;;;23.20;15.60;;;;;;;18.86;34.12;100444.75;5259095;28;20033;-72
2022/03/30 10:10:20;;;;;;;21.70;13.98;;;;;;;19.12;33.59;100444.88;5257956;28;20052;-73
2022/03/30 10:12:52;;;;;;;21.65;14.15;;;;;;;20.09;32.17;100446.34;5260410;28;20032;-72
2022/03/30 10:15:24;;;;;;;21.25;14.02;;;;;;;19.42;32.54;100440.03;5260472;28;20053;-72
2022/03/30 10:17:56;;;;;;;24.80;14.05;;;;;;;20.24;32.13;100440.38;5258952;28;20028;-72
2022/03/30 10:20:27;;;;;;;19.55;13.88;;;;;;;20.60;31.87;100429.38;5257412;28;20045;-73
2022/03/30 10:23:17;;;;;;;28.67;15.68;;;;;;;20.01;32.03;100422.41;5259410;28;20021;-73
2022/03/30 10:26:10;;;;;;;21.42;13.30;;;;;;;20.79;30.62;100425.53;5259518;28;20387;-73
2022/03/30 10:28:43;;;;;;;22.98;15.02;;;;;;;19.33;32.05;100431.22;5263063;28;20059;-77
2022/03/30 10:31:20;;;;;;;21.40;15.13;;;;;;;19.74;31.64;100424.38;5269939;28;20056;-77
2022/03/30 10:33:52;;;;;;;19.95;13.80;;;;;;;19.57;31.89;100411.88;5259303;28;20016;-78
2022/03/30 10:36:25;;;;;;;19.45;14.13;;;;;;;20.12;31.34;100423.94;5259846;28;20013;-78
2022/03/30 10:39:15;;;;;;;24.13;14.60;;;;;;;20.17;31.85;100410.97;5255215;28;20029;-79
2022/03/30 10:41:52;;;;;;;24.35;14.52;;;;;;;19.44;32.71;100419.47;5260784;28;20040;-78
2022/03/30 10:44:44;;;;;;;21.40;14.70;;;;;;;19.62;32.41;100413.22;5259612;28;20017;-78
2022/03/30 10:47:23;;;;;;;23.13;15.13;;;;;;;18.74;33.45;100395.59;5261822;28;20052;-74
2022/03/30 10:49:57;;;;;;;23.90;14.85;;;;;;;18.35;33.41;100397.66;5273507;28;20100;-73
2022/03/30 10:52:43;;;;;;;24.15;15.80;;;;;;;19.86;33.20;100393.00;5273376;28;20067;-74
2022/03/30 10:55:14;;;;;;;19.83;14.23;;;;;;;19.34;32.73;100390.38;5270419;28;20016;-74
2022/03/30 10:57:51;;;;;;;20.83;13.40;;;;;;;19.15;33.08;100391.50;5269650;28;20024;-74
2022/03/30 11:00:25;;;;;;;19.58;13.90;;;;;;;19.07;33.18;100382.47;5267033;28;20503;-78
2022/03/30 11:03:11;;;;;;;17.83;14.85;;;;;;;19.30;33.64;100379.28;5265377;28;20521;-78
2022/03/30 11:05:58;;;;;;;18.30;13.35;;;;;;;19.37;33.19;100378.63;5271014;28;20028;-78
2022/03/30 11:08:33;;;;;;;20.83;15.38;;;;;;;18.84;33.44;100377.72;5270952;28;20107;-79
2022/03/30 11:11:19;;;;;;;21.30;14.20;;;;;;;18.35;33.76;100368.50;5269873;28;20123;-78
2022/03/30 11:14:21;;;;;;;23.07;14.47;;;;;;;19.11;33.47;100369.75;5270835;28;20068;-78
2022/03/30 11:16:56;;;;;;;17.80;14.10;;;;;;;18.98;32.98;100360.38;5274899;28;20059;-79
2022/03/30 11:19:55;;;;;;;22.30;15.90;;;;;;;18.26;33.88;100357.00;5268833;28;20054;-78
2022/03/30 11:22:36;;;;;;;18.40;13.80;;;;;;;18.18;34.06;100338.41;5272962;28;20116;-80
2022/03/30 11:25:09;;;;;;;22.17;14.97;;;;;;;17.49;34.92;100354.84;5274352;28;20806;-77
2022/03/30 11:27:41;;;;;;;22.20;14.90;;;;;;;17.08;35.21;100349.88;5273586;28;20040;-77
2022/03/30 11:30:15;;;;;;;24.07;15.37;;;;;;;17.17;35.99;100347.19;5272320;28;20078;-76
2022/03/30 11:32:49;;;;;;;20.42;14.90;;;;;;;17.20;35.85;100339.94;5266709;28;20484;-78
2022/03/30 11:35:24;;;;;;;;;;;;;;;18.16;34.97;100342.16;5261994;28;20826;-79
2022/03/30 11:38:07;;;;;;;25.33;14.98;;;;;;;17.18;36.29;100326.88;5252861;28;19934;-77
2022/03/30 11:40:44;;;;;;;25.10;13.90;;;;;;;17.76;35.96;100331.91;5253247;28;20064;-77
2022/03/30 11:43:19;;;;;;;23.23;15.03;;;;;;;17.10;36.10;100321.50;5252233;28;20488;-77
2022/03/30 11:45:51;;;;;;;19.53;14.17;;;;;;;17.68;35.18;100321.25;5251408;28;20021;-76
2022/03/30 11:48:22;;;;;;;21.33;14.83;;;;;;;17.32;35.61;100319.41;5250281;28;20060;-76
2022/03/30 11:50:58;;;;;;;22.80;14.17;;;;;;;17.28;35.72;100318.84;5252469;28;20021;-76